Time;durP1;ratioP1;P1;durP2;ratioP2;P2;SDS_P1;SDS_P2;PMS_P1;PMS_P2;Temp;Humidity;BMP_temperature;BMP_pressure;BME280_temperature;BME280_humidity;BME280_pressure;Samples;Min_cycle;Max_cycle;Signal;HPM_P1;HPM_P2
2021/04/09 00:02:10;;;;;;;15.77;13.07;;;1.00;97.00;;;;;;4999364;28;20212;-71
2021/04/09 00:04:38;;;;;;;14.15;12.30;;;0.90;97.10;;;;;;5002791;28;20217;-72
2021/04/09 00:07:07;;;;;;;18.90;12.73;;;1.20;96.90;;;;;;4998871;28;20229;-71
2021/04/09 00:09:34;;;;;;;18.08;13.50;;;1.10;96.50;;;;;;4999556;28;20214;-71
2021/04/09 00:12:02;;;;;;;21.30;13.82;;;0.80;97.30;;;;;;4999136;28;20198;-70
2021/04/09 00:14:28;;;;;;;21.88;13.57;;;0.80;97.20;;;;;;4998946;28;20209;-71
2021/04/09 00:16:55;;;;;;;21.52;13.10;;;1.00;96.90;;;;;;4986714;28;20220;-70
2021/04/09 00:19:25;;;;;;;22.80;12.93;;;1.00;96.60;;;;;;5002015;28;20216;-70
2021/04/09 00:21:52;;;;;;;19.15;12.63;;;0.90;96.90;;;;;;5004071;28;20210;-72
2021/04/09 00:24:19;;;;;;;20.45;13.60;;;1.00;96.90;;;;;;4998948;28;20210;-71
2021/04/09 00:26:46;;;;;;;24.15;13.80;;;1.10;96.80;;;;;;4973457;28;20218;-71
2021/04/09 00:29:12;;;;;;;26.92;14.13;;;1.10;96.50;;;;;;5006977;28;20221;-71
2021/04/09 00:31:40;;;;;;;26.50;14.38;;;1.30;96.30;;;;;;4998938;28;20617;-71
2021/04/09 00:34:07;;;;;;;19.42;13.05;;;1.20;96.10;;;;;;4998755;28;20206;-70
2021/04/09 00:36:35;;;;;;;26.70;14.10;;;1.00;96.50;;;;;;4985477;28;20237;-71
2021/04/09 00:39:04;;;;;;;19.63;11.98;;;1.00;96.40;;;;;;4987428;28;20220;-71
2021/04/09 00:41:30;;;;;;;20.33;12.35;;;1.40;96.30;;;;;;4999075;28;20256;-71
2021/04/09 00:43:57;;;;;;;22.58;12.88;;;1.10;96.20;;;;;;5009762;28;20215;-70
2021/04/09 00:46:24;;;;;;;22.10;13.07;;;1.00;96.30;;;;;;4991122;28;20224;-70
2021/04/09 00:48:51;;;;;;;30.55;16.42;;;0.90;96.50;;;;;;4985327;28;20695;-71
2021/04/09 00:51:19;;;;;;;22.23;13.27;;;0.90;96.40;;;;;;4998367;28;20249;-70
2021/04/09 00:53:45;;;;;;;25.08;14.55;;;0.70;96.70;;;;;;4988147;28;20206;-70
2021/04/09 00:56:16;;;;;;;28.70;14.80;;;1.60;97.20;;;;;;4998814;28;20257;-70
2021/04/09 00:58:44;;;;;;;21.88;12.48;;;0.60;96.80;;;;;;5008564;28;20517;-69
2021/04/09 01:01:11;;;;;;;22.60;14.00;;;0.50;96.80;;;;;;4989446;28;20217;-69
2021/04/09 01:03:39;;;;;;;25.08;13.43;;;0.70;96.70;;;;;;4997543;28;20272;-69
2021/04/09 01:06:06;;;;;;;17.75;11.27;;;0.70;96.60;;;;;;5006793;28;20228;-69
2021/04/09 01:08:35;;;;;;;24.42;13.48;;;0.70;96.50;;;;;;5001109;28;20206;-69
2021/04/09 01:11:01;;;;;;;19.95;12.05;;;0.50;97.00;;;;;;4988924;28;20244;-69
2021/04/09 01:13:28;;;;;;;19.38;11.88;;;0.30;97.30;;;;;;4983422;28;20227;-69
2021/04/09 01:15:55;;;;;;;15.93;10.88;;;0.40;97.40;;;;;;5002486;28;20229;-70
2021/04/09 01:19:00;;;;;;;17.52;11.15;;;0.50;97.10;;;;;;5008277;28;20204;-68
2021/04/09 01:21:38;;;;;;;22.48;12.27;;;0.50;96.80;;;;;;4998726;28;20215;-68
2021/04/09 01:24:18;;;;;;;17.33;11.15;;;0.50;97.00;;;;;;4998576;28;20206;-70
2021/04/09 01:27:09;;;;;;;19.00;11.50;;;0.60;96.90;;;;;;4999060;28;20523;-69
2021/04/09 01:29:54;;;;;;;18.25;11.82;;;0.60;96.60;;;;;;5007627;28;20209;-70
2021/04/09 01:32:23;;;;;;;15.48;10.55;;;0.50;96.80;;;;;;4998360;28;20578;-69
2021/04/09 01:34:57;;;;;;;19.45;11.23;;;0.50;97.00;;;;;;4997870;28;20224;-68
2021/04/09 01:37:34;;;;;;;18.67;12.93;;;0.40;97.00;;;;;;4988280;28;20214;-69
2021/04/09 01:40:25;;;;;;;22.15;12.93;;;0.50;97.00;;;;;;4983145;28;20206;-68
2021/04/09 01:42:54;;;;;;;17.48;11.70;;;0.20;97.50;;;;;;4993750;28;20504;-68
2021/04/09 01:45:24;;;;;;;23.50;13.05;;;0.10;97.80;;;;;;4998010;28;20248;-68
2021/04/09 01:47:57;;;;;;;21.85;12.23;;;0.10;97.90;;;;;;4997313;28;20459;-67
2021/04/09 01:50:27;;;;;;;18.73;10.23;;;0.10;98.20;;;;;;4997395;28;20249;-67
2021/04/09 01:52:55;;;;;;;22.98;12.48;;;0.10;98.10;;;;;;4997778;28;20220;-67
2021/04/09 01:55:23;;;;;;;18.00;11.13;;;0.00;98.30;;;;;;4997669;28;20233;-67
2021/04/09 01:57:51;;;;;;;16.58;10.68;;;0.00;98.30;;;;;;4997994;28;20545;-67
2021/04/09 02:00:24;;;;;;;18.58;11.35;;;0.00;98.50;;;;;;4997379;28;20217;-66
2021/04/09 02:02:53;;;;;;;19.10;12.00;;;0.00;98.50;;;;;;4985775;28;20220;-66
2021/04/09 02:05:22;;;;;;;16.42;11.00;;;0.10;98.40;;;;;;4997032;28;20229;-67
2021/04/09 02:07:51;;;;;;;19.50;10.43;;;0.10;98.60;;;;;;4987135;28;20214;-66
2021/04/09 02:10:20;;;;;;;22.00;11.68;;;0.10;98.70;;;;;;4995439;28;20289;-66
2021/04/09 02:12:48;;;;;;;16.85;10.30;;;0.10;98.60;;;;;;4997408;28;20245;-66
2021/04/09 02:15:17;;;;;;;16.65;10.43;;;0.10;98.60;;;;;;4997505;28;20233;-66
2021/04/09 02:17:44;;;;;;;16.33;10.55;;;0.10;98.70;;;;;;4997685;28;20210;-67
2021/04/09 02:20:13;;;;;;;15.32;10.05;;;0.70;98.80;;;;;;4997236;28;20217;-66
2021/04/09 02:22:40;;;;;;;17.38;10.57;;;0.10;98.70;;;;;;4985408;28;20220;-66
2021/04/09 02:25:08;;;;;;;19.25;12.25;;;0.20;98.60;;;;;;5000880;28;20404;-66
2021/04/09 02:27:36;;;;;;;24.63;10.32;;;0.10;98.70;;;;;;4992939;28;20224;-67
2021/04/09 02:30:07;;;;;;;16.05;10.38;;;0.20;98.60;;;;;;5001834;28;20301;-66
2021/04/09 02:32:34;;;;;;;14.32;8.88;;;0.30;98.50;;;;;;5001354;28;20520;-66
2021/04/09 02:35:03;;;;;;;17.60;9.68;;;0.20;98.70;;;;;;5015459;28;20277;-66
2021/04/09 02:37:30;;;;;;;13.73;10.32;;;0.10;98.70;;;;;;4990388;28;20552;-66
2021/04/09 02:40:01;;;;;;;16.23;9.38;;;0.20;98.70;;;;;;5012012;28;20209;-65
2021/04/09 02:42:28;;;;;;;11.95;8.07;;;0.00;99.00;;;;;;5010729;28;20403;-66
2021/04/09 02:44:55;;;;;;;15.77;10.35;;;0.20;98.90;;;;;;5014725;28;20209;-65
2021/04/09 02:47:27;;;;;;;16.17;10.02;;;0.20;98.70;;;;;;5004385;28;20507;-66
2021/04/09 02:50:12;;;;;;;11.80;9.30;;;0.20;98.60;;;;;;4996769;28;20241;-65
2021/04/09 02:52:54;;;;;;;12.50;10.20;;;0.20;98.60;;;;;;5000824;28;20210;-65
2021/04/09 02:55:25;;;;;;;12.38;8.27;;;0.20;98.60;;;;;;5001917;28;20228;-66
2021/04/09 02:57:53;;;;;;;15.00;9.73;;;0.30;98.50;;;;;;5005821;28;20217;-65
2021/04/09 03:00:22;;;;;;;15.25;10.43;;;0.20;98.60;;;;;;4984274;28;20218;-66
2021/04/09 03:02:50;;;;;;;18.90;9.40;;;0.10;98.60;;;;;;4990070;28;20489;-66
2021/04/09 03:05:18;;;;;;;17.30;9.95;;;0.60;98.80;;;;;;5000396;28;20229;-65
2021/04/09 03:07:46;;;;;;;15.70;10.25;;;0.20;98.50;;;;;;5008325;28;20276;-67
2021/04/09 03:10:15;;;;;;;13.48;9.68;;;0.10;98.70;;;;;;5007233;28;20582;-65
2021/04/09 03:12:42;;;;;;;11.75;8.50;;;0.20;98.40;;;;;;4987295;28;20209;-65
2021/04/09 03:15:15;;;;;;;12.52;8.90;;;0.20;98.50;;;;;;4983878;28;20241;-65
2021/04/09 03:17:56;;;;;;;12.40;8.75;;;0.30;98.40;;;;;;4979613;28;20213;-66
2021/04/09 03:20:24;;;;;;;14.50;8.80;;;0.40;98.00;;;;;;4980976;28;20229;-66
2021/04/09 03:22:51;;;;;;;12.73;9.93;;;0.30;98.10;;;;;;5000792;28;20216;-66
2021/04/09 03:25:18;;;;;;;13.30;9.57;;;0.30;98.20;;;;;;5000638;28;20213;-66
2021/04/09 03:27:44;;;;;;;14.27;9.02;;;0.30;98.20;;;;;;4995996;28;20269;-66
2021/04/09 03:30:12;;;;;;;14.38;9.07;;;0.90;98.70;;;;;;4990704;28;20222;-65
2021/04/09 03:32:39;;;;;;;13.07;8.10;;;0.20;98.60;;;;;;4999901;28;20237;-65
2021/04/09 03:35:06;;;;;;;14.95;9.27;;;1.00;98.80;;;;;;5001160;28;20201;-65
2021/04/09 03:37:33;;;;;;;12.45;8.95;;;0.20;98.40;;;;;;5003460;28;20210;-64
2021/04/09 03:39:59;;;;;;;13.25;9.73;;;0.20;98.30;;;;;;5001325;28;20209;-65
2021/04/09 03:42:26;;;;;;;14.88;9.10;;;1.00;98.60;;;;;;5001143;28;20213;-65
2021/04/09 03:44:53;;;;;;;14.65;10.20;;;0.20;98.40;;;;;;4996515;28;20244;-65
2021/04/09 03:47:19;;;;;;;19.48;10.30;;;0.20;98.30;;;;;;4996354;28;20257;-65
2021/04/09 03:49:46;;;;;;;14.57;9.35;;;0.30;98.10;;;;;;4996650;28;20244;-64
2021/04/09 03:52:12;;;;;;;15.50;9.80;;;0.40;98.00;;;;;;4997183;28;20606;-65
2021/04/09 03:54:39;;;;;;;15.57;9.45;;;0.80;98.20;;;;;;5002418;28;20415;-65
2021/04/09 03:57:06;;;;;;;13.82;9.43;;;0.30;98.10;;;;;;4999298;28;20482;-65
2021/04/09 03:59:34;;;;;;;12.82;9.15;;;0.30;98.10;;;;;;4999388;28;20265;-64
2021/04/09 04:02:01;;;;;;;13.38;9.77;;;0.20;98.20;;;;;;4994668;28;20206;-64
2021/04/09 04:04:28;;;;;;;10.80;8.93;;;0.20;98.20;;;;;;4997098;28;20217;-65
2021/04/09 04:06:54;;;;;;;15.10;10.10;;;0.10;98.30;;;;;;4994224;28;20233;-64
2021/04/09 04:09:21;;;;;;;18.42;8.98;;;1.20;98.50;;;;;;5000293;28;20293;-64
2021/04/09 04:11:47;;;;;;;13.85;7.97;;;0.30;98.00;;;;;;4998637;28;20414;-64
2021/04/09 04:14:14;;;;;;;19.70;9.90;;;0.30;97.80;;;;;;4999975;28;20205;-65
2021/04/09 04:16:41;;;;;;;20.65;13.10;;;0.30;97.70;;;;;;5002442;28;20491;-66
2021/04/09 04:19:07;;;;;;;21.20;16.42;;;0.20;98.10;;;;;;4996637;28;20496;-63
2021/04/09 04:21:34;;;;;;;11.73;9.10;;;0.70;98.10;;;;;;4999705;28;20283;-65
2021/04/09 04:24:00;;;;;;;17.17;10.38;;;0.40;97.70;;;;;;5003719;28;20554;-66
2021/04/09 04:26:27;;;;;;;12.60;8.82;;;0.30;97.70;;;;;;5001325;28;20248;-66
2021/04/09 04:28:54;;;;;;;17.15;9.25;;;1.20;98.10;;;;;;4998868;28;20445;-65
2021/04/09 04:31:20;;;;;;;13.38;9.30;;;0.30;97.70;;;;;;4998895;28;20256;-66
2021/04/09 04:33:47;;;;;;;10.70;7.15;;;0.40;97.40;;;;;;4999326;28;20244;-66
2021/04/09 04:36:13;;;;;;;11.60;7.25;;;0.40;97.50;;;;;;4998538;28;20229;-65
2021/04/09 04:38:40;;;;;;;11.77;8.38;;;1.50;97.40;;;;;;5007398;28;20209;-65
2021/04/09 04:41:06;;;;;;;10.65;8.32;;;0.50;96.90;;;;;;5003282;28;20221;-64
2021/04/09 04:43:33;;;;;;;11.02;7.63;;;0.60;96.90;;;;;;4998785;28;20210;-64
2021/04/09 04:46:00;;;;;;;6.57;5.70;;;0.70;96.60;;;;;;5000712;28;20221;-65
2021/04/09 04:48:27;;;;;;;10.20;7.63;;;0.80;96.30;;;;;;5001719;28;20213;-65
2021/04/09 04:50:54;;;;;;;12.05;9.15;;;1.90;96.40;;;;;;4999260;28;20256;-65
2021/04/09 04:53:21;;;;;;;10.05;7.65;;;1.20;96.20;;;;;;4999410;28;20206;-67
2021/04/09 04:55:48;;;;;;;14.05;9.82;;;1.30;95.70;;;;;;5000161;28;20230;-65
2021/04/09 04:58:16;;;;;;;10.25;7.68;;;1.60;94.90;;;;;;5004096;28;20204;-65
2021/04/09 05:00:42;;;;;;;12.98;8.40;;;2.00;94.10;;;;;;4993178;28;20201;-66
2021/04/09 05:03:09;;;;;;;13.15;8.50;;;2.20;93.60;;;;;;5004115;28;20213;-66
2021/04/09 05:05:36;;;;;;;9.38;6.78;;;2.60;93.00;;;;;;4994632;28;20234;-65
2021/04/09 05:08:02;;;;;;;10.80;7.68;;;2.70;92.70;;;;;;4984234;28;20216;-66
2021/04/09 05:10:29;;;;;;;11.18;8.15;;;2.90;92.40;;;;;;5001786;28;20214;-68
2021/04/09 05:12:55;;;;;;;9.40;7.07;;;3.10;91.70;;;;;;4990142;28;20217;-68
2021/04/09 05:15:22;;;;;;;8.23;6.75;;;3.20;91.40;;;;;;4998004;28;20299;-70
2021/04/09 05:17:49;;;;;;;12.40;7.85;;;3.40;90.80;;;;;;4983893;28;20561;-68
2021/04/09 05:20:15;;;;;;;11.68;6.70;;;3.70;90.20;;;;;;4988708;28;20207;-69
2021/04/09 05:22:42;;;;;;;9.52;8.52;;;3.90;89.70;;;;;;5000825;28;20284;-68
2021/04/09 05:25:09;;;;;;;9.27;7.05;;;4.20;88.90;;;;;;4984718;28;20219;-70
2021/04/09 05:27:36;;;;;;;11.50;6.85;;;4.30;88.40;;;;;;4998291;28;20279;-70
2021/04/09 05:30:04;;;;;;;9.63;7.28;;;4.40;87.70;;;;;;5000380;28;20225;-71
2021/04/09 05:32:31;;;;;;;11.07;7.30;;;4.60;86.70;;;;;;4996112;28;20394;-70
2021/04/09 05:34:57;;;;;;;12.38;8.52;;;4.80;85.90;;;;;;4991300;28;20213;-70
2021/04/09 05:37:24;;;;;;;11.85;7.80;;;5.30;83.50;;;;;;4987313;28;20510;-70
2021/04/09 05:39:51;;;;;;;13.05;7.82;;;5.70;82.40;;;;;;4996358;28;20205;-71
2021/04/09 05:42:18;;;;;;;8.70;7.80;;;6.20;80.00;;;;;;5008653;28;20216;-71
2021/04/09 05:44:44;;;;;;;9.25;7.68;;;6.70;77.70;;;;;;4984393;28;20209;-71
2021/04/09 05:47:11;;;;;;;10.82;9.00;;;7.30;75.30;;;;;;4977903;28;20210;-71
2021/04/09 05:49:40;;;;;;;11.02;8.20;;;8.30;72.50;;;;;;4995517;28;20241;-71
2021/04/09 05:52:08;;;;;;;10.32;8.45;;;9.00;68.10;;;;;;4994541;28;20428;-71
2021/04/09 05:54:39;;;;;;;11.63;8.70;;;9.60;64.40;;;;;;4990559;28;20212;-72
2021/04/09 05:57:07;;;;;;;11.18;8.57;;;9.70;63.10;;;;;;4994728;28;20708;-70
2021/04/09 05:59:33;;;;;;;11.18;7.70;;;9.90;64.10;;;;;;4998758;28;20487;-71
2021/04/09 06:02:02;;;;;;;10.98;8.25;;;9.80;60.20;;;;;;5004085;28;20208;-70
2021/04/09 06:04:29;;;;;;;10.23;8.50;;;10.20;59.70;;;;;;5004702;28;20213;-71
2021/04/09 06:06:56;;;;;;;8.93;7.80;;;10.40;58.90;;;;;;5006711;28;20421;-70
2021/04/09 06:09:25;;;;;;;12.98;8.13;;;10.30;58.50;;;;;;5001258;28;20250;-70
2021/04/09 06:11:51;;;;;;;10.60;7.85;;;10.10;58.90;;;;;;4986503;28;20212;-70
2021/04/09 06:14:18;;;;;;;10.32;8.65;;;10.60;58.10;;;;;;4998391;28;20209;-71
2021/04/09 06:16:45;;;;;;;13.00;9.18;;;11.20;57.10;;;;;;4989075;28;20517;-71
2021/04/09 06:19:12;;;;;;;14.65;9.13;;;11.50;54.40;;;;;;5008379;28;20205;-70
2021/04/09 06:21:39;;;;;;;8.93;8.13;;;11.90;53.30;;;;;;4990822;28;20241;-70
2021/04/09 06:24:06;;;;;;;10.45;7.85;;;12.40;53.10;;;;;;5004258;28;20582;-71
2021/04/09 06:26:34;;;;;;;8.30;7.68;;;13.60;49.60;;;;;;4999331;28;20214;-72
2021/04/09 06:29:03;;;;;;;8.73;7.82;;;13.80;47.80;;;;;;4983095;28;20265;-70
2021/04/09 06:31:32;;;;;;;9.27;8.48;;;13.40;47.70;;;;;;4986320;28;20485;-70
2021/04/09 06:33:59;;;;;;;10.43;8.82;;;13.80;47.90;;;;;;4985114;28;20495;-69
2021/04/09 06:36:26;;;;;;;9.73;8.73;;;14.80;46.10;;;;;;5005123;28;20238;-71
2021/04/09 06:38:52;;;;;;;9.38;8.57;;;15.00;45.10;;;;;;5001095;28;20199;-70
2021/04/09 06:41:20;;;;;;;11.20;10.20;;;15.50;44.50;;;;;;4999879;28;20631;-69
2021/04/09 06:43:48;;;;;;;10.83;9.47;;;16.10;42.40;;;;;;4997794;28;20463;-70
2021/04/09 06:46:15;;;;;;;9.90;8.90;;;16.70;42.30;;;;;;4999317;28;20513;-70
2021/04/09 06:48:43;;;;;;;8.33;7.70;;;16.80;40.30;;;;;;5002229;28;20453;-70
2021/04/09 06:51:13;;;;;;;10.43;8.00;;;16.30;41.10;;;;;;5000844;28;20449;-70
2021/04/09 06:53:47;;;;;;;13.83;9.33;;;16.30;40.60;;;;;;5000876;28;20439;-70
2021/04/09 06:56:20;;;;;;;11.93;9.17;;;16.10;41.60;;;;;;5003579;28;20455;-70
2021/04/09 06:58:48;;;;;;;10.17;8.73;;;17.20;39.80;;;;;;4992924;28;20456;-69
2021/04/09 07:01:17;;;;;;;10.27;8.40;;;17.40;39.10;;;;;;5000652;28;20447;-69
2021/04/09 07:03:44;;;;;;;9.93;8.93;;;17.40;37.80;;;;;;5000630;28;20422;-69
2021/04/09 07:06:11;;;;;;;10.70;9.80;;;18.40;37.10;;;;;;5004220;28;20474;-69
2021/04/09 07:08:42;;;;;;;10.87;9.77;;;19.00;35.10;;;;;;5005043;28;20429;-69
2021/04/09 07:11:09;;;;;;;13.13;11.67;;;20.00;34.50;;;;;;4991568;28;20417;-69
2021/04/09 07:13:53;;;;;;;13.47;12.13;;;20.30;33.50;;;;;;4993049;28;20502;-69
2021/04/09 07:16:20;;;;;;;13.00;10.43;;;19.80;34.30;;;;;;5002310;28;20485;-70
2021/04/09 07:18:59;;;;;;;12.23;10.63;;;19.70;33.10;;;;;;5000769;28;20637;-68
2021/04/09 07:21:31;;;;;;;11.33;10.10;;;20.40;32.40;;;;;;5002742;28;20414;-68
2021/04/09 07:24:13;;;;;;;27.63;14.40;;;20.70;32.10;;;;;;5000870;28;20418;-69
2021/04/09 07:26:51;;;;;;;9.67;8.87;;;21.50;31.20;;;;;;4998341;28;20488;-69
2021/04/09 07:29:31;;;;;;;10.40;9.50;;;21.10;30.00;;;;;;5002782;28;20419;-69
2021/04/09 07:32:12;;;;;;;10.57;8.53;;;19.90;33.10;;;;;;5005038;28;20494;-69
2021/04/09 07:34:53;;;;;;;9.60;8.70;;;20.10;32.90;;;;;;5008397;28;20418;-68
2021/04/09 07:37:22;;;;;;;12.90;8.90;;;20.10;31.50;;;;;;4994104;28;20524;-68
2021/04/09 07:39:57;;;;;;;11.30;10.13;;;20.60;30.80;;;;;;5008025;28;20777;-69
2021/04/09 07:42:35;;;;;;;14.90;11.73;;;21.30;32.50;;;;;;5010619;28;20422;-69
2021/04/09 07:45:11;;;;;;;14.13;10.63;;;22.00;30.00;;;;;;5001640;28;20683;-69
2021/04/09 07:47:53;;;;;;;12.07;9.27;;;22.50;29.20;;;;;;4999389;28;20475;-69
2021/04/09 07:50:37;;;;;;;17.67;10.00;;;23.80;28.40;;;;;;4989399;28;20475;-69
2021/04/09 07:53:04;;;;;;;13.37;10.27;;;23.80;26.90;;;;;;4998866;28;20418;-69
2021/04/09 07:55:31;;;;;;;11.37;10.17;;;24.00;26.50;;;;;;4999810;28;20474;-69
2021/04/09 07:58:19;;;;;;;14.60;8.93;;;23.30;27.20;;;;;;4993034;28;20485;-69
2021/04/09 08:00:48;;;;;;;12.23;10.00;;;23.50;28.00;;;;;;4991798;28;20427;-70
2021/04/09 08:03:36;;;;;;;11.27;10.10;;;24.10;26.20;;;;;;4999319;28;20441;-68
2021/04/09 08:06:09;;;;;;;11.70;10.20;;;24.60;26.10;;;;;;4997879;28;20459;-69
2021/04/09 08:08:38;;;;;;;12.13;11.17;;;24.50;25.70;;;;;;4993614;28;20469;-69
2021/04/09 08:11:31;;;;;;;16.90;9.50;;;24.20;25.00;;;;;;4998149;28;20459;-70
2021/04/09 08:14:13;;;;;;;9.90;9.00;;;23.50;26.40;;;;;;4999105;28;20762;-70
2021/04/09 08:16:41;;;;;;;9.70;8.90;;;23.50;27.90;;;;;;5001040;28;20483;-69
2021/04/09 08:19:11;;;;;;;10.90;9.80;;;23.80;26.00;;;;;;4995781;28;21107;-68
2021/04/09 08:21:47;;;;;;;9.90;9.20;;;22.20;27.80;;;;;;4999312;28;20865;-69
2021/04/09 08:24:15;;;;;;;13.23;9.80;;;21.40;29.20;;;;;;4992766;28;20760;-70
2021/04/09 08:26:42;;;;;;;9.13;8.43;;;20.90;29.10;;;;;;4999765;28;20450;-69
2021/04/09 08:29:11;;;;;;;9.67;8.70;;;21.90;28.20;;;;;;4999684;28;20550;-70
2021/04/09 08:31:40;;;;;;;10.73;9.60;;;22.60;27.40;;;;;;4999043;28;20592;-69
2021/04/09 08:34:08;;;;;;;14.37;11.20;;;23.70;26.70;;;;;;4999707;28;20414;-69
2021/04/09 08:36:42;;;;;;;15.50;11.80;;;24.60;25.50;;;;;;5002529;28;20841;-70
2021/04/09 08:39:11;;;;;;;10.13;9.23;;;25.90;25.70;;;;;;4991853;28;20443;-71
2021/04/09 08:41:42;;;;;;;11.00;9.63;;;27.30;23.90;;;;;;5007597;28;20619;-69
2021/04/09 08:44:13;;;;;;;10.10;9.40;;;26.70;23.30;;;;;;4997884;28;20638;-69
2021/04/09 08:46:41;;;;;;;10.83;10.03;;;27.10;23.40;;;;;;4994679;28;20487;-68
2021/04/09 08:49:10;;;;;;;13.50;10.87;;;25.70;23.50;;;;;;4998231;28;20449;-70
2021/04/09 08:51:38;;;;;;;12.10;11.10;;;26.20;23.90;;;;;;4995947;28;20484;-69
2021/04/09 08:54:15;;;;;;;11.63;10.07;;;27.20;24.30;;;;;;4998579;28;20490;-70
2021/04/09 08:56:43;;;;;;;12.33;11.23;;;25.90;24.30;;;;;;4996000;28;20426;-69
2021/04/09 08:59:10;;;;;;;12.40;11.30;;;26.60;24.10;;;;;;4998628;28;20467;-69
2021/04/09 09:01:39;;;;;;;12.60;10.07;;;25.70;24.20;;;;;;4998295;28;20586;-68
2021/04/09 09:04:21;;;;;;;12.03;11.20;;;24.10;25.20;;;;;;4999279;28;20601;-69
2021/04/09 09:06:49;;;;;;;11.73;10.73;;;24.50;25.10;;;;;;4997467;28;20495;-70
2021/04/09 09:09:30;;;;;;;14.20;10.30;;;24.00;26.10;;;;;;4998458;28;20746;-69
2021/04/09 09:12:00;;;;;;;13.53;11.87;;;23.60;26.10;;;;;;4998467;28;20414;-69
2021/04/09 09:14:35;;;;;;;11.03;10.10;;;24.40;25.30;;;;;;4997931;28;20452;-69
2021/04/09 09:17:18;;;;;;;11.67;10.77;;;23.40;25.80;;;;;;4997673;28;20766;-69
2021/04/09 09:19:48;;;;;;;10.50;9.50;;;22.80;26.00;;;;;;4997648;28;20418;-69
2021/04/09 09:22:19;;;;;;;11.43;10.23;;;23.30;26.50;;;;;;4987208;28;20737;-68
2021/04/09 09:25:05;;;;;;;11.07;9.97;;;21.60;29.00;;;;;;4997692;28;20481;-68
2021/04/09 09:27:48;;;;;;;11.57;10.47;;;19.10;32.40;;;;;;4997245;28;20902;-69
2021/04/09 09:30:42;;;;;;;15.63;12.30;;;17.30;34.00;;;;;;4997772;28;20443;-68
2021/04/09 09:33:28;;;;;;;11.23;10.23;;;16.30;37.60;;;;;;5004257;28;20443;-69
2021/04/09 09:35:59;;;;;;;13.13;10.73;;;15.60;37.80;;;;;;4998595;28;20432;-69
2021/04/09 09:38:48;;;;;;;11.43;9.33;;;15.40;38.50;;;;;;4998281;28;20583;-69
2021/04/09 09:41:40;;;;;;;11.53;10.57;;;15.40;39.90;;;;;;5000265;28;20453;-69
2021/04/09 09:44:31;;;;;;;10.57;9.53;;;15.50;40.50;;;;;;5006806;28;20624;-68
2021/04/09 09:47:03;;;;;;;14.43;10.40;;;15.60;40.80;;;;;;4987895;28;20575;-70
2021/04/09 09:49:35;;;;;;;12.57;11.27;;;15.30;39.50;;;;;;4999323;28;20516;-68
2021/04/09 09:52:22;;;;;;;11.90;10.63;;;15.20;40.40;;;;;;4997365;28;20445;-71
2021/04/09 09:55:15;;;;;;;11.10;10.10;;;14.90;40.50;;;;;;4991209;28;20480;-68
2021/04/09 09:58:16;;;;;;;10.57;9.75;;;14.90;42.00;;;;;;4994844;28;20219;-69
2021/04/09 10:00:58;;;;;;;11.13;10.10;;;14.60;41.80;;;;;;4979376;28;20217;-68
2021/04/09 10:03:36;;;;;;;11.70;10.70;;;14.60;43.00;;;;;;4991586;28;20284;-69
2021/04/09 10:06:08;;;;;;;11.80;10.73;;;14.70;41.20;;;;;;5000139;28;20251;-68
2021/04/09 10:08:55;;;;;;;10.95;9.70;;;14.40;41.40;;;;;;4986073;28;20274;-68
2021/04/09 10:11:24;;;;;;;11.68;10.65;;;13.80;41.90;;;;;;4995629;28;20273;-68
2021/04/09 10:13:52;;;;;;;12.43;9.85;;;13.70;43.40;;;;;;5001686;28;20228;-69
2021/04/09 10:16:21;;;;;;;10.82;9.88;;;13.80;43.80;;;;;;5000274;28;20214;-70
2021/04/09 10:18:52;;;;;;;16.30;9.55;;;13.80;43.70;;;;;;4999979;28;20197;-68
2021/04/09 10:21:31;;;;;;;10.23;9.32;;;14.00;43.20;;;;;;4997014;28;20493;-70
2021/04/09 10:24:13;;;;;;;10.23;9.30;;;14.20;43.40;;;;;;4996836;28;20272;-69
2021/04/09 10:27:03;;;;;;;10.57;9.68;;;14.00;43.90;;;;;;4997178;28;20248;-69
2021/04/09 10:29:35;;;;;;;15.60;11.00;;;14.10;43.80;;;;;;4997425;28;20210;-69
2021/04/09 10:32:07;;;;;;;11.05;10.00;;;14.20;43.60;;;;;;4998177;28;20217;-71
2021/04/09 10:34:34;;;;;;;10.20;9.40;;;14.20;42.90;;;;;;5008526;28;20527;-69
2021/04/09 10:37:05;;;;;;;11.63;10.63;;;13.90;43.60;;;;;;5010618;28;20278;-68
2021/04/09 10:39:32;;;;;;;11.07;9.45;;;13.80;44.20;;;;;;5003992;28;20215;-70
2021/04/09 10:42:03;;;;;;;10.40;9.55;;;13.90;43.80;;;;;;5010173;28;20212;-71
2021/04/09 10:44:31;;;;;;;11.50;10.32;;;13.90;42.50;;;;;;5000914;28;20217;-69
2021/04/09 10:47:01;;;;;;;11.18;10.18;;;13.80;43.00;;;;;;4996410;28;20610;-68
2021/04/09 10:49:30;;;;;;;12.88;10.93;;;13.70;43.90;;;;;;4986466;28;20249;-69
2021/04/09 10:51:59;;;;;;;10.98;9.98;;;13.60;44.80;;;;;;4990678;28;20194;-69
2021/04/09 10:54:31;;;;;;;9.35;8.55;;;13.60;43.60;;;;;;4997266;28;20556;-68
2021/04/09 10:57:00;;;;;;;11.57;10.52;;;13.50;45.60;;;;;;5000811;28;20241;-67
2021/04/09 10:59:28;;;;;;;15.02;10.15;;;13.70;45.90;;;;;;4996604;28;20220;-68
2021/04/09 11:01:56;;;;;;;12.55;9.70;;;13.90;44.90;;;;;;4991986;28;20250;-69
2021/04/09 11:04:28;;;;;;;13.82;10.02;;;13.90;43.30;;;;;;4997410;28;20217;-69
2021/04/09 11:07:00;;;;;;;10.45;9.52;;;14.00;43.60;;;;;;4991961;28;20229;-69
2021/04/09 11:09:49;;;;;;;14.23;11.07;;;13.90;42.30;;;;;;4986951;28;20505;-69
2021/04/09 11:12:25;;;;;;;10.02;9.00;;;13.80;43.40;;;;;;4991612;28;20272;-68
2021/04/09 11:15:12;;;;;;;10.65;9.80;;;13.70;45.20;;;;;;5005201;28;20209;-69
2021/04/09 11:17:59;;;;;;;10.15;9.05;;;13.60;44.00;;;;;;4993748;28;20217;-68
2021/04/09 11:20:35;;;;;;;10.43;9.50;;;13.70;43.90;;;;;;5001096;28;20336;-68
2021/04/09 11:23:14;;;;;;;11.23;8.90;;;13.80;44.10;;;;;;4997371;28;20209;-70
2021/04/09 11:25:45;;;;;;;10.55;9.70;;;13.80;43.60;;;;;;4994383;28;20308;-68
2021/04/09 11:28:27;;;;;;;10.40;9.38;;;13.80;43.30;;;;;;5009197;28;20439;-71
2021/04/09 11:31:02;;;;;;;10.05;9.13;;;13.90;44.70;;;;;;4988134;28;20211;-69
2021/04/09 11:33:39;;;;;;;9.93;9.05;;;14.10;44.40;;;;;;5007598;28;20287;-69
2021/04/09 11:36:15;;;;;;;9.60;8.70;;;14.40;43.20;;;;;;4999217;28;20254;-68
2021/04/09 11:38:47;;;;;;;10.45;9.32;;;14.50;43.70;;;;;;5001927;28;20281;-68
2021/04/09 11:41:46;;;;;;;15.50;9.63;;;14.60;43.20;;;;;;4993869;28;20266;-67
2021/04/09 11:44:36;;;;;;;10.77;9.77;;;14.70;42.50;;;;;;4990807;28;20216;-68
2021/04/09 11:47:33;;;;;;;13.80;9.52;;;14.80;42.60;;;;;;5001536;28;20248;-69
2021/04/09 11:50:25;;;;;;;10.90;9.70;;;14.80;41.80;;;;;;4997733;28;20713;-70
2021/04/09 11:53:01;;;;;;;8.60;8.00;;;15.00;41.80;;;;;;4998271;28;20209;-69
2021/04/09 11:55:34;;;;;;;11.30;10.13;;;15.00;40.70;;;;;;4986931;28;20274;-69
2021/04/09 11:58:05;;;;;;;10.45;9.55;;;15.00;41.70;;;;;;4999100;28;20217;-69
2021/04/09 12:00:44;;;;;;;13.40;10.00;;;15.10;41.00;;;;;;4998131;28;20371;-68
2021/04/09 12:03:11;;;;;;;10.48;9.02;;;15.10;41.40;;;;;;4997684;28;20206;-69
2021/04/09 12:05:38;;;;;;;8.53;7.73;;;15.40;40.40;;;;;;4998939;28;20250;-70
2021/04/09 12:08:05;;;;;;;10.63;9.30;;;15.50;40.30;;;;;;4991351;28;20497;-68
2021/04/09 12:10:33;;;;;;;10.00;9.02;;;15.60;41.00;;;;;;4987819;28;20245;-69
2021/04/09 12:13:00;;;;;;;10.15;9.18;;;15.50;41.70;;;;;;4983399;28;20208;-71
2021/04/09 12:15:28;;;;;;;13.90;9.93;;;15.30;41.90;;;;;;4984454;28;20494;-69
2021/04/09 12:17:56;;;;;;;10.13;9.25;;;15.40;40.60;;;;;;4992778;28;20207;-69
2021/04/09 12:20:26;;;;;;;11.05;9.68;;;15.20;41.70;;;;;;4998885;28;20212;-68
2021/04/09 12:22:54;;;;;;;10.35;9.43;;;15.00;41.10;;;;;;5001005;28;20215;-70
2021/04/09 12:25:22;;;;;;;10.23;9.33;;;15.20;40.80;;;;;;4999699;28;20241;-70
2021/04/09 12:27:49;;;;;;;14.32;9.82;;;15.20;40.90;;;;;;4999450;28;20509;-70
2021/04/09 12:30:17;;;;;;;11.60;9.90;;;15.30;40.40;;;;;;4996770;28;20284;-69
2021/04/09 12:32:44;;;;;;;17.58;10.50;;;15.60;41.20;;;;;;4998680;28;20212;-68
2021/04/09 12:35:11;;;;;;;10.00;9.27;;;15.80;41.90;;;;;;5006692;28;20208;-70
2021/04/09 12:37:39;;;;;;;11.17;10.07;;;15.90;40.40;;;;;;5003799;28;20429;-68
2021/04/09 12:40:07;;;;;;;9.67;8.73;;;16.00;39.50;;;;;;5017807;28;20459;-69
2021/04/09 12:42:34;;;;;;;11.73;9.57;;;16.00;39.30;;;;;;4998939;28;20450;-68
2021/04/09 12:45:01;;;;;;;10.57;9.63;;;15.90;40.00;;;;;;5009034;28;20445;-69
2021/04/09 12:47:27;;;;;;;10.33;9.43;;;15.90;39.90;;;;;;4978283;28;20489;-69
2021/04/09 12:49:54;;;;;;;11.70;9.50;;;16.10;40.70;;;;;;4999547;28;20495;-68
2021/04/09 12:52:21;;;;;;;10.48;8.15;;;16.00;40.60;;;;;;5006421;28;20492;-69
2021/04/09 12:54:48;;;;;;;11.07;8.80;;;16.00;40.20;;;;;;5002963;28;20399;-69
2021/04/09 12:57:17;;;;;;;11.73;9.13;;;16.00;39.00;;;;;;5006250;28;20460;-70
2021/04/09 12:59:43;;;;;;;10.13;8.20;;;16.00;39.30;;;;;;5001387;28;20442;-70